Time;durP1;ratioP1;P1;durP2;ratioP2;P2;SDS_P1;SDS_P2;PMS_P1;PMS_P2;Temp;Humidity;BMP_temperature;BMP_pressure;BME280_temperature;BME280_humidity;BME280_pressure;Samples;Min_cycle;Max_cycle;Signal;HPM_P1;HPM_P2
2023/05/26 00:00:34;;;;;;;4.43;1.90;;;;;;;18.96;56.54;102693.59;20799077;28;20416;-62
2023/05/26 00:10:37;;;;;;;3.57;1.70;;;;;;;18.93;56.47;102696.47;20795571;28;20037;-62
2023/05/26 00:20:39;;;;;;;3.40;1.52;;;;;;;18.90;56.18;102700.22;20798484;28;20564;-62
2023/05/26 00:30:41;;;;;;;4.82;1.90;;;;;;;18.82;55.86;102686.38;20801989;28;20069;-62
2023/05/26 00:40:43;;;;;;;4.65;1.63;;;;;;;18.86;55.84;102693.31;20789677;28;20045;-62
2023/05/26 00:50:47;;;;;;;3.83;1.58;;;;;;;18.84;55.88;102700.63;20797452;28;20136;-62
2023/05/26 01:00:52;;;;;;;4.45;1.63;;;;;;;18.81;55.33;102692.72;20806732;28;20057;-62
2023/05/26 01:11:07;;;;;;;4.65;1.67;;;;;;;18.81;55.37;102703.53;20795407;28;20133;-62
2023/05/26 01:21:13;;;;;;;5.05;1.70;;;;;;;18.78;54.99;102701.03;20790272;28;20107;-62
2023/05/26 01:31:15;;;;;;;5.05;1.80;;;;;;;18.78;54.84;102701.03;20809270;28;20072;-62
2023/05/26 01:41:25;;;;;;;4.25;1.55;;;;;;;18.76;54.47;102701.09;20798324;28;20053;-62
2023/05/26 01:51:32;;;;;;;4.68;1.50;;;;;;;18.74;54.42;102710.28;20818132;28;20042;-62
2023/05/26 02:01:35;;;;;;;3.33;1.50;;;;;;;18.72;54.40;102717.63;20804255;28;20044;-62
2023/05/26 02:11:40;;;;;;;4.15;1.52;;;;;;;18.69;54.11;102729.44;20807957;28;20049;-62
2023/05/26 02:21:42;;;;;;;3.78;1.50;;;;;;;18.68;53.98;102715.13;20808229;28;20493;-62
2023/05/26 02:32:10;;;;;;;5.68;1.50;;;;;;;18.66;53.75;102729.66;20803075;28;20050;-62
2023/05/26 02:42:14;;;;;;;2.95;1.33;;;;;;;18.65;53.66;102733.31;20802667;28;20565;-62
2023/05/26 02:52:21;;;;;;;4.53;1.45;;;;;;;18.61;53.49;102735.34;20804245;28;20053;-62
2023/05/26 03:02:26;;;;;;;2.75;1.50;;;;;;;18.63;53.49;102735.25;20800469;28;20100;-62
2023/05/26 03:12:28;;;;;;;3.17;1.30;;;;;;;18.62;53.33;102734.38;20801816;28;20056;-62
2023/05/26 03:22:30;;;;;;;3.65;1.65;;;;;;;18.61;52.87;102740.75;20801724;28;20572;-62
2023/05/26 03:32:52;;;;;;;3.53;1.55;;;;;;;18.60;52.97;102741.72;20799920;28;20052;-62
2023/05/26 03:42:55;;;;;;;3.17;1.20;;;;;;;18.58;53.27;102749.03;20801373;28;20045;-62
2023/05/26 03:52:57;;;;;;;1.90;1.17;;;;;;;18.57;53.00;102744.59;20809875;28;20049;-62
2023/05/26 04:02:59;;;;;;;2.60;1.25;;;;;;;18.57;52.87;102751.81;20892694;28;20041;-62
2023/05/26 04:13:01;;;;;;;3.00;1.02;;;;;;;18.55;52.80;102749.19;20883585;28;20405;-62
2023/05/26 04:23:04;;;;;;;2.90;1.30;;;;;;;18.52;52.66;102754.78;20899337;28;20045;-62
2023/05/26 04:33:07;;;;;;;2.75;1.30;;;;;;;18.49;52.74;102766.66;20898808;28;20098;-62
2023/05/26 04:43:28;;;;;;;2.53;1.13;;;;;;;18.45;53.15;102762.41;20794888;28;20093;-61
2023/05/26 04:53:30;;;;;;;3.88;1.65;;;;;;;18.44;53.46;102789.44;20792830;28;20049;-60
2023/05/26 05:03:34;;;;;;;3.10;1.25;;;;;;;18.43;53.69;102791.28;20810183;28;20563;-62
2023/05/26 05:13:45;;;;;;;1.95;1.10;;;;;;;18.45;54.17;102801.97;20826205;28;20100;-61
2023/05/26 05:23:47;;;;;;;2.88;1.30;;;;;;;18.47;54.06;102813.53;20813343;28;20080;-60
2023/05/26 05:33:49;;;;;;;3.22;1.30;;;;;;;18.48;54.12;102807.19;20821908;28;20072;-60
2023/05/26 05:43:56;;;;;;;2.88;1.20;;;;;;;18.48;54.03;102813.47;20829742;28;20072;-61
2023/05/26 05:53:59;;;;;;;2.95;1.45;;;;;;;18.52;55.32;102827.59;20851736;28;20316;-60
2023/05/26 06:04:02;;;;;;;2.95;1.35;;;;;;;18.53;54.94;102826.63;20908346;28;20049;-60
2023/05/26 06:14:05;;;;;;;2.92;1.30;;;;;;;18.55;54.94;102830.09;20891567;28;20144;-60
2023/05/26 06:24:08;;;;;;;4.05;1.45;;;;;;;18.58;54.76;102846.13;20907000;28;20382;-60
2023/05/26 06:34:10;;;;;;;2.72;1.30;;;;;;;18.61;54.67;102847.75;20905357;28;20033;-60
2023/05/26 06:44:13;;;;;;;3.30;1.40;;;;;;;18.67;54.40;102853.66;20885497;28;20051;-60
2023/05/26 06:54:15;;;;;;;3.00;1.25;;;;;;;18.75;54.48;102844.22;20866841;28;20044;-60
2023/05/26 07:04:16;;;;;;;4.00;1.33;;;;;;;18.81;54.19;102857.34;20877895;28;20525;-60
2023/05/26 07:14:18;;;;;;;5.30;1.80;;;;;;;18.90;54.16;102843.25;20807315;28;20072;-60
2023/05/26 07:24:20;;;;;;;3.15;1.42;;;;;;;19.01;54.29;102863.38;20812178;28;20070;-60
2023/05/26 07:34:22;;;;;;;2.72;1.33;;;;;;;19.07;55.01;102868.38;20797772;28;20053;-60
2023/05/26 07:44:24;;;;;;;3.10;1.13;;;;;;;19.33;55.20;102860.44;20807513;28;20049;-60
2023/05/26 07:54:25;;;;;;;3.83;1.35;;;;;;;19.50;55.42;102853.97;20811592;28;20114;-60
2023/05/26 08:04:27;;;;;;;5.53;1.85;;;;;;;19.85;55.63;102859.75;20799863;28;20409;-62
2023/05/26 08:14:29;;;;;;;8.38;1.60;;;;;;;20.26;54.60;102863.41;20815193;28;20068;-62
2023/05/26 08:24:30;;;;;;;4.50;1.65;;;;;;;20.92;53.54;102846.28;20794812;28;20049;-62
2023/05/26 08:34:32;;;;;;;5.18;1.52;;;;;;;21.50;52.39;102859.28;20789107;28;20077;-64
2023/05/26 08:44:35;;;;;;;4.78;1.60;;;;;;;22.15;51.01;102849.09;20817529;28;20147;-64
2023/05/26 08:54:37;;;;;;;3.22;1.60;;;;;;;22.22;50.36;102859.47;20808776;28;20038;-63
2023/05/26 09:04:39;;;;;;;7.47;1.85;;;;;;;21.59;51.68;102855.06;20829302;28;20042;-64
2023/05/26 09:14:41;;;;;;;2.58;1.30;;;;;;;21.10;52.75;102860.34;20829427;28;20045;-64
2023/05/26 09:24:45;;;;;;;3.42;1.70;;;;;;;20.83;53.44;102868.59;20817009;28;20096;-63
2023/05/26 09:34:50;;;;;;;8.45;1.90;;;;;;;20.68;55.19;102868.66;20820544;28;20057;-64
2023/05/26 09:44:51;;;;;;;6.13;1.90;;;;;;;20.59;56.72;102874.72;20834714;28;20048;-63
2023/05/26 09:54:53;;;;;;;4.65;1.92;;;;;;;20.52;56.90;102859.88;20827999;28;20049;-64
2023/05/26 10:04:55;;;;;;;6.03;1.63;;;;;;;20.46;56.76;102853.03;20828819;28;20128;-63
2023/05/26 10:14:58;;;;;;;5.50;1.88;;;;;;;20.43;56.65;102864.06;20827542;28;20060;-63
2023/05/26 10:25:20;;;;;;;4.60;1.50;;;;;;;20.38;56.47;102859.00;20823940;28;20046;-63
2023/05/26 10:35:27;;;;;;;4.93;2.08;;;;;;;20.37;56.27;102854.56;20813161;28;20060;-63
2023/05/26 10:45:32;;;;;;;4.57;1.60;;;;;;;20.36;56.24;102846.53;20816729;28;20037;-63
2023/05/26 10:55:55;;;;;;;4.03;1.77;;;;;;;20.33;56.06;102853.03;20809967;28;20045;-63
2023/05/26 11:05:57;;;;;;;4.65;1.50;;;;;;;20.34;55.95;102848.47;20820824;28;20077;-63
2023/05/26 11:16:25;;;;;;;2.72;1.20;;;;;;;20.25;55.88;102833.75;20800738;28;20140;-63
2023/05/26 11:26:30;;;;;;;4.00;1.50;;;;;;;20.25;56.26;102831.91;20829778;28;20149;-63
2023/05/26 11:36:32;;;;;;;7.18;1.90;;;;;;;20.30;56.58;102837.00;20796350;28;20079;-64
2023/05/26 11:46:36;;;;;;;5.05;1.67;;;;;;;20.31;56.33;102837.88;20798635;28;20052;-64
2023/05/26 11:56:38;;;;;;;5.77;1.63;;;;;;;20.32;55.73;102845.88;20791387;28;20050;-64
2023/05/26 12:06:41;;;;;;;4.20;1.42;;;;;;;20.33;55.56;102841.34;20810790;28;21016;-64
2023/05/26 12:16:43;;;;;;;5.15;1.63;;;;;;;20.31;55.57;102837.88;20818558;28;20132;-64
2023/05/26 12:26:46;;;;;;;3.25;1.50;;;;;;;20.27;56.43;102831.78;20816943;28;20045;-64
2023/05/26 12:36:49;;;;;;;3.65;1.33;;;;;;;20.25;56.39;102836.44;20812251;28;20045;-64
2023/05/26 12:46:51;;;;;;;4.97;1.38;;;;;;;20.24;56.93;102837.41;20790582;28;20132;-64
2023/05/26 12:56:53;;;;;;;4.65;1.45;;;;;;;20.23;57.20;102835.69;20793399;28;21615;-63
2023/05/26 13:06:54;;;;;;;2.83;1.60;;;;;;;20.24;57.94;102837.41;20798673;28;20053;-64
2023/05/26 13:16:59;;;;;;;7.05;1.88;;;;;;;20.27;59.42;102831.78;20804787;28;20049;-63
2023/05/26 13:27:00;;;;;;;4.63;1.40;;;;;;;20.26;60.04;102832.78;20805782;28;20088;-70
2023/05/26 13:37:03;;;;;;;5.05;1.60;;;;;;;20.21;59.36;102824.09;20808788;28;20037;-70
2023/05/26 13:47:05;;;;;;;8.35;2.40;;;;;;;20.17;58.74;102820.75;20788511;28;20056;-69
2023/05/26 13:57:07;;;;;;;5.88;2.60;;;;;;;20.12;57.73;102814.81;20813422;28;20426;-69
2023/05/26 14:07:10;;;;;;;6.03;2.80;;;;;;;20.10;57.54;102814.91;20799996;28;20077;-68
2023/05/26 14:17:16;;;;;;;6.72;2.42;;;;;;;20.09;57.20;102809.56;20796768;28;20049;-68
2023/05/26 14:27:18;;;;;;;5.15;2.38;;;;;;;20.06;56.75;102815.19;20804072;28;20041;-68
2023/05/26 14:37:20;;;;;;;5.00;2.05;;;;;;;20.03;56.27;102827.09;20796218;28;20549;-68
2023/05/26 14:47:21;;;;;;;5.72;2.38;;;;;;;20.01;56.19;102826.34;20799070;28;20049;-68
2023/05/26 14:57:23;;;;;;;6.18;2.78;;;;;;;20.02;56.19;102832.59;20796175;28;20111;-67
2023/05/26 15:07:25;;;;;;;5.03;2.50;;;;;;;19.98;56.21;102840.06;20785138;28;20049;-67
2023/05/26 15:17:26;;;;;;;5.07;2.45;;;;;;;19.95;55.92;102837.56;20783149;28;20115;-67
2023/05/26 15:27:29;;;;;;;8.93;2.22;;;;;;;19.92;56.08;102813.44;20788013;28;20052;-63
2023/05/26 15:37:30;;;;;;;4.85;2.00;;;;;;;19.94;57.46;102815.06;20790551;28;20110;-62
2023/05/26 15:47:40;;;;;;;5.68;2.80;;;;;;;19.99;59.60;102803.94;20796165;28;20387;-63
2023/05/26 15:57:42;;;;;;;11.80;5.65;;;;;;;20.04;61.25;102806.31;20791576;28;20517;-63
2023/05/26 16:07:44;;;;;;;17.48;6.20;;;;;;;20.12;64.12;102795.88;20783846;28;20112;-62
2023/05/26 16:17:45;;;;;;;11.23;5.15;;;;;;;20.21;66.27;102803.34;20782711;28;20049;-62
2023/05/26 16:27:47;;;;;;;12.60;5.22;;;;;;;20.32;68.60;102788.22;20780615;28;20045;-63
2023/05/26 16:37:49;;;;;;;9.68;4.45;;;;;;;20.32;68.70;102791.78;20768043;28;20456;-62
2023/05/26 16:47:50;;;;;;;6.45;3.35;;;;;;;20.25;67.00;102774.25;20779723;28;20053;-63
2023/05/26 16:57:52;;;;;;;7.40;3.00;;;;;;;20.25;65.14;102787.75;20792382;28;20148;-63
2023/05/26 17:07:53;;;;;;;6.07;2.92;;;;;;;20.21;64.03;102788.94;20800812;28;20067;-63
2023/05/26 17:17:55;;;;;;;5.38;2.50;;;;;;;20.18;63.09;102794.56;20799092;28;20087;-62
2023/05/26 17:27:57;;;;;;;6.15;2.83;;;;;;;20.14;62.39;102799.34;20808339;28;20068;-63
2023/05/26 17:37:59;;;;;;;5.20;2.40;;;;;;;20.11;61.87;102800.41;20782461;28;20470;-62
2023/05/26 17:48:01;;;;;;;4.80;2.33;;;;;;;20.10;61.60;102798.66;20798583;28;20045;-62
2023/05/26 17:58:03;;;;;;;4.97;1.95;;;;;;;20.09;61.21;102796.94;20791116;28;20107;-63
2023/05/26 18:08:05;;;;;;;5.30;1.90;;;;;;;20.04;60.49;102785.56;20789533;28;20049;-60
2023/05/26 18:18:07;;;;;;;5.43;2.28;;;;;;;20.04;60.83;102798.22;20796416;28;20119;-63
2023/05/26 18:28:08;;;;;;;5.22;2.30;;;;;;;20.00;60.03;102800.28;20793668;28;20501;-63
2023/05/26 18:38:10;;;;;;;6.28;1.95;;;;;;;19.92;60.00;102795.38;20785786;28;20041;-62
2023/05/26 18:48:12;;;;;;;6.13;2.08;;;;;;;19.89;60.17;102802.81;20778641;28;20041;-62
2023/05/26 18:58:13;;;;;;;4.53;2.10;;;;;;;19.86;59.77;102803.88;20790628;28;20123;-64
2023/05/26 19:08:15;;;;;;;4.75;1.95;;;;;;;19.79;58.96;102799.84;20806887;28;20501;-65
2023/05/26 19:18:17;;;;;;;6.78;2.47;;;;;;;19.71;57.99;102801.25;20807044;28;20775;-65
2023/05/26 19:28:18;;;;;;;5.10;2.22;;;;;;;19.65;57.48;102798.91;20821906;28;20053;-64
2023/05/26 19:38:20;;;;;;;5.78;2.15;;;;;;;19.60;56.68;102800.22;20846623;28;20050;-64
2023/05/26 19:48:22;;;;;;;3.40;2.08;;;;;;;19.48;56.50;102788.38;20809117;28;20156;-65
2023/05/26 19:58:23;;;;;;;5.40;2.30;;;;;;;19.52;55.77;102812.38;20801685;28;20516;-65
2023/05/26 20:08:25;;;;;;;2.88;1.65;;;;;;;19.50;55.93;102811.63;20799338;28;20107;-64
2023/05/26 20:18:27;;;;;;;3.95;1.50;;;;;;;19.49;55.76;102812.59;20793099;28;20053;-65
2023/05/26 20:28:29;;;;;;;4.03;1.70;;;;;;;19.48;55.23;102808.16;20805730;28;20132;-64
2023/05/26 20:38:34;;;;;;;2.70;1.63;;;;;;;19.46;55.00;102803.81;20861042;28;20049;-64
2023/05/26 20:48:36;;;;;;;3.75;2.00;;;;;;;19.44;54.98;102809.31;20810486;28;20053;-64
2023/05/26 20:58:38;;;;;;;4.10;2.00;;;;;;;19.41;54.67;102807.69;20793643;28;20563;-65
2023/05/26 21:08:39;;;;;;;5.75;1.90;;;;;;;19.41;54.11;102812.19;20796826;28;20042;-65
2023/05/26 21:18:41;;;;;;;5.43;2.60;;;;;;;19.41;57.97;102820.31;20798195;28;20136;-65
2023/05/26 21:28:43;;;;;;;4.25;2.20;;;;;;;19.41;58.18;102820.31;20794520;28;20053;-64
2023/05/26 21:38:45;;;;;;;3.35;1.45;;;;;;;19.39;57.83;102809.63;20790649;28;20041;-65
2023/05/26 21:48:46;;;;;;;4.15;2.10;;;;;;;19.37;57.56;102805.28;20814079;28;20049;-65
2023/05/26 21:58:48;;;;;;;3.70;1.73;;;;;;;19.35;56.47;102807.19;20812411;28;20120;-65
2023/05/26 22:08:50;;;;;;;4.63;1.70;;;;;;;19.33;55.80;102801.03;20805947;28;20142;-65
2023/05/26 22:18:51;;;;;;;4.20;2.10;;;;;;;19.31;55.23;102797.56;20807656;28;20460;-65
2023/05/26 22:28:53;;;;;;;4.38;2.00;;;;;;;19.27;54.91;102795.06;20802946;28;20103;-64
2023/05/26 22:39:02;;;;;;;3.13;1.70;;;;;;;19.26;54.67;102796.03;20803962;28;20180;-65
2023/05/26 22:49:05;;;;;;;4.15;1.95;;;;;;;19.23;54.23;102804.34;20808158;28;20071;-65
2023/05/26 22:59:06;;;;;;;3.20;1.77;;;;;;;19.21;53.75;102798.16;20805928;28;20060;-65
2023/05/26 23:09:08;;;;;;;2.75;1.83;;;;;;;19.19;53.79;102797.41;20801397;28;20053;-64
2023/05/26 23:19:11;;;;;;;2.63;1.42;;;;;;;19.19;53.70;102785.72;20801445;28;20440;-64
2023/05/26 23:29:13;;;;;;;3.47;1.30;;;;;;;19.15;53.48;102779.66;20802306;28;20937;-64
2023/05/26 23:39:14;;;;;;;3.15;1.50;;;;;;;19.11;53.35;102767.34;20801202;28;20064;-64
2023/05/26 23:49:16;;;;;;;2.58;1.27;;;;;;;19.06;53.27;102759.53;20801648;28;20137;-64
2023/05/26 23:59:18;;;;;;;2.63;1.23;;;;;;;19.04;53.31;102757.91;20802017;28;20052;-65
